sensor_id;sensor_type;location;lat;lon;timestamp;pressure;altitude;pressure_sealevel;temperature;humidity
53619;BME280;39505;53.040;18.488;2023-02-19T00:00:11;100771.72;;;2.49;100.00
53619;BME280;39505;53.040;18.488;2023-02-19T00:00:46;100778.81;;;2.49;100.00
53619;BME280;39505;53.040;18.488;2023-02-19T00:01:20;100767.28;;;2.50;100.00
53619;BME280;39505;53.040;18.488;2023-02-19T00:01:36;100770.03;;;2.48;100.00
53619;BME280;39505;53.040;18.488;2023-02-19T00:01:50;100775.31;;;2.48;100.00
53619;BME280;39505;53.040;18.488;2023-02-19T00:02:03;100771.78;;;2.48;100.00
53619;BME280;39505;53.040;18.488;2023-02-19T00:02:16;100777.03;;;2.49;100.00
53619;BME280;39505;53.040;18.488;2023-02-19T00:02:31;100774.44;;;2.48;100.00
53619;BME280;39505;53.040;18.488;2023-02-19T00:02:46;100770.88;;;2.49;100.00
53619;BME280;39505;53.040;18.488;2023-02-19T00:02:59;100766.44;;;2.49;100.00
53619;BME280;39505;53.040;18.488;2023-02-19T00:03:13;100769.06;;;2.49;100.00
53619;BME280;39505;53.040;18.488;2023-02-19T00:03:27;100765.47;;;2.50;100.00
53619;BME280;39505;53.040;18.488;2023-02-19T00:03:41;100766.44;;;2.49;100.00
53619;BME280;39505;53.040;18.488;2023-02-19T00:03:56;100769.84;;;2.51;100.00
53619;BME280;39505;53.040;18.488;2023-02-19T00:04:12;100775.16;;;2.51;100.00
53619;BME280;39505;53.040;18.488;2023-02-19T00:04:25;100774.31;;;2.51;100.00
53619;BME280;39505;53.040;18.488;2023-02-19T00:04:38;100769.00;;;2.51;100.00
53619;BME280;39505;53.040;18.488;2023-02-19T00:04:51;100773.41;;;2.50;100.00
53619;BME280;39505;53.040;18.488;2023-02-19T00:05:05;100773.41;;;2.50;100.00
53619;BME280;39505;53.040;18.488;2023-02-19T00:05:18;100774.31;;;2.51;100.00
53619;BME280;39505;53.040;18.488;2023-02-19T00:05:31;100774.31;;;2.51;100.00
53619;BME280;39505;53.040;18.488;2023-02-19T00:05:47;100778.72;;;2.50;100.00
53619;BME280;39505;53.040;18.488;2023-02-19T00:06:01;100774.38;;;2.49;100.00
53619;BME280;39505;53.040;18.488;2023-02-19T00:06:14;100774.38;;;2.49;100.00
53619;BME280;39505;53.040;18.488;2023-02-19T00:06:29;100770.03;;;2.48;100.00
53619;BME280;39505;53.040;18.488;2023-02-19T00:06:43;100775.31;;;2.48;100.00
53619;BME280;39505;53.040;18.488;2023-02-19T00:06:58;100775.31;;;2.48;100.00
53619;BME280;39505;53.040;18.488;2023-02-19T00:07:11;100776.16;;;2.49;100.00
53619;BME280;39505;53.040;18.488;2023-02-19T00:07:24;100777.97;;;2.48;100.00
53619;BME280;39505;53.040;18.488;2023-02-19T00:07:37;100774.44;;;2.48;100.00
53619;BME280;39505;53.040;18.488;2023-02-19T00:07:50;100779.66;;;2.49;100.00
53619;BME280;39505;53.040;18.488;2023-02-19T00:08:03;100774.44;;;2.48;100.00
53619;BME280;39505;53.040;18.488;2023-02-19T00:08:16;100775.31;;;2.48;100.00
53619;BME280;39505;53.040;18.488;2023-02-19T00:08:29;100778.03;;;2.47;100.00
53619;BME280;39505;53.040;18.488;2023-02-19T00:08:43;100773.59;;;2.47;100.00
53619;BME280;39505;53.040;18.488;2023-02-19T00:08:57;100773.59;;;2.47;100.00
53619;BME280;39505;53.040;18.488;2023-02-19T00:09:11;100771.78;;;2.48;100.00
53619;BME280;39505;53.040;18.488;2023-02-19T00:09:24;100775.31;;;2.48;100.00
53619;BME280;39505;53.040;18.488;2023-02-19T00:09:37;100773.59;;;2.47;100.00
53619;BME280;39505;53.040;18.488;2023-02-19T00:09:51;100774.44;;;2.48;100.00
53619;BME280;39505;53.040;18.488;2023-02-19T00:10:05;100773.59;;;2.47;100.00
53619;BME280;39505;53.040;18.488;2023-02-19T00:10:18;100773.59;;;2.47;100.00
53619;BME280;39505;53.040;18.488;2023-02-19T00:10:31;100782.31;;;2.49;100.00
53619;BME280;39505;53.040;18.488;2023-02-19T00:10:44;100770.88;;;2.49;100.00
53619;BME280;39505;53.040;18.488;2023-02-19T00:11:00;100777.97;;;2.48;100.00
53619;BME280;39505;53.040;18.488;2023-02-19T00:11:14;100777.97;;;2.48;100.00
53619;BME280;39505;53.040;18.488;2023-02-19T00:11:31;100785.91;;;2.48;100.00
53619;BME280;39505;53.040;18.488;2023-02-19T00:11:44;100779.72;;;2.48;100.00
53619;BME280;39505;53.040;18.488;2023-02-19T00:11:58;100776.16;;;2.49;100.00
53619;BME280;39505;53.040;18.488;2023-02-19T00:12:11;100775.31;;;2.48;100.00
53619;BME280;39505;53.040;18.488;2023-02-19T00:12:24;100775.31;;;2.48;100.00
53619;BME280;39505;53.040;18.488;2023-02-19T00:12:37;100780.63;;;2.48;100.00
53619;BME280;39505;53.040;18.488;2023-02-19T00:12:51;100783.25;;;2.48;100.00
53619;BME280;39505;53.040;18.488;2023-02-19T00:13:04;100781.47;;;2.49;100.00
53619;BME280;39505;53.040;18.488;2023-02-19T00:13:18;100776.16;;;2.49;100.00
53619;BME280;39505;53.040;18.488;2023-02-19T00:13:35;100777.88;;;2.50;100.00
53619;BME280;39505;53.040;18.488;2023-02-19T00:13:50;100784.88;;;2.51;100.00
53619;BME280;39505;53.040;18.488;2023-02-19T00:14:04;100782.31;;;2.49;100.00
53619;BME280;39505;53.040;18.488;2023-02-19T00:14:20;100782.31;;;2.49;100.00
53619;BME280;39505;53.040;18.488;2023-02-19T00:14:33;100788.44;;;2.50;100.00
53619;BME280;39505;53.040;18.488;2023-02-19T00:14:46;100784.88;;;2.51;100.00
53619;BME280;39505;53.040;18.488;2023-02-19T00:14:59;100783.16;;;2.50;100.00
53619;BME280;39505;53.040;18.488;2023-02-19T00:15:12;100785.72;;;2.51;100.00
53619;BME280;39505;53.040;18.488;2023-02-19T00:15:25;100784.88;;;2.51;100.00
53619;BME280;39505;53.040;18.488;2023-02-19T00:15:38;100777.78;;;2.51;100.00
53619;BME280;39505;53.040;18.488;2023-02-19T00:15:52;100783.09;;;2.51;100.00
53619;BME280;39505;53.040;18.488;2023-02-19T00:16:06;100790.06;;;2.52;100.00
53619;BME280;39505;53.040;18.488;2023-02-19T00:16:21;100788.31;;;2.53;100.00
53619;BME280;39505;53.040;18.488;2023-02-19T00:16:36;100786.66;;;2.50;100.00
53619;BME280;39505;53.040;18.488;2023-02-19T00:16:49;100785.72;;;2.51;100.00
53619;BME280;39505;53.040;18.488;2023-02-19T00:17:03;100798.00;;;2.52;100.00
53619;BME280;39505;53.040;18.488;2023-02-19T00:17:16;100789.22;;;2.52;100.00
53619;BME280;39505;53.040;18.488;2023-02-19T00:17:30;100785.66;;;2.53;100.00
53619;BME280;39505;53.040;18.488;2023-02-19T00:17:43;100786.59;;;2.52;100.00
53619;BME280;39505;53.040;18.488;2023-02-19T00:17:56;100786.59;;;2.52;100.00
53619;BME280;39505;53.040;18.488;2023-02-19T00:18:09;100788.38;;;2.51;100.00
53619;BME280;39505;53.040;18.488;2023-02-19T00:18:22;100790.19;;;2.51;100.00
53619;BME280;39505;53.040;18.488;2023-02-19T00:18:35;100787.53;;;2.51;100.00
53619;BME280;39505;53.040;18.488;2023-02-19T00:18:49;100786.66;;;2.50;100.00
53619;BME280;39505;53.040;18.488;2023-02-19T00:19:04;100792.81;;;2.51;100.00
53619;BME280;39505;53.040;18.488;2023-02-19T00:19:19;100788.38;;;2.51;100.00
53619;BME280;39505;53.040;18.488;2023-02-19T00:19:33;100791.09;;;2.50;100.00
53619;BME280;39505;53.040;18.488;2023-02-19T00:19:46;100789.28;;;2.50;100.00
53619;BME280;39505;53.040;18.488;2023-02-19T00:19:59;100788.44;;;2.50;100.00
53619;BME280;39505;53.040;18.488;2023-02-19T00:20:13;100789.28;;;2.50;100.00
53619;BME280;39505;53.040;18.488;2023-02-19T00:20:26;100784.09;;;2.49;100.00
53619;BME280;39505;53.040;18.488;2023-02-19T00:20:39;100785.91;;;2.48;100.00
53619;BME280;39505;53.040;18.488;2023-02-19T00:20:55;100787.59;;;2.49;100.00
53619;BME280;39505;53.040;18.488;2023-02-19T00:21:08;100784.19;;;2.47;100.00
53619;BME280;39505;53.040;18.488;2023-02-19T00:21:23;100788.56;;;2.48;100.00
53619;BME280;39505;53.040;18.488;2023-02-19T00:21:37;100787.66;;;2.48;100.00
53619;BME280;39505;53.040;18.488;2023-02-19T00:21:51;100785.91;;;2.48;100.00
53619;BME280;39505;53.040;18.488;2023-02-19T00:22:06;100788.56;;;2.48;100.00
53619;BME280;39505;53.040;18.488;2023-02-19T00:22:22;100786.91;;;2.46;100.00
53619;BME280;39505;53.040;18.488;2023-02-19T00:22:35;100789.47;;;2.47;100.00
53619;BME280;39505;53.040;18.488;2023-02-19T00:22:48;100786.81;;;2.47;100.00
53619;BME280;39505;53.040;18.488;2023-02-19T00:23:01;100785.97;;;2.47;100.00
53619;BME280;39505;53.040;18.488;2023-02-19T00:23:15;100787.78;;;2.46;100.00
53619;BME280;39505;53.040;18.488;2023-02-19T00:23:28;100785.13;;;2.46;100.00
53619;BME280;39505;53.040;18.488;2023-02-19T00:23:41;100784.25;;;2.46;100.00
53619;BME280;39505;53.040;18.488;2023-02-19T00:23:57;100788.69;;;2.45;100.00
53619;BME280;39505;53.040;18.488;2023-02-19T00:24:12;100793.06;;;2.46;100.00
53619;BME280;39505;53.040;18.488;2023-02-19T00:24:25;100793.97;;;2.45;100.00
53619;BME280;39505;53.040;18.488;2023-02-19T00:24:39;100787.00;;;2.44;100.00
53619;BME280;39505;53.040;18.488;2023-02-19T00:24:52;100789.66;;;2.44;100.00
53619;BME280;39505;53.040;18.488;2023-02-19T00:25:05;100789.66;;;2.44;100.00
53619;BME280;39505;53.040;18.488;2023-02-19T00:25:18;100789.66;;;2.44;100.00
53619;BME280;39505;53.040;18.488;2023-02-19T00:25:35;100788.75;;;2.43;100.00
53619;BME280;39505;53.040;18.488;2023-02-19T00:25:48;100782.63;;;2.43;100.00
53619;BME280;39505;53.040;18.488;2023-02-19T00:26:02;100789.66;;;2.44;100.00
53619;BME280;39505;53.040;18.488;2023-02-19T00:26:29;100788.75;;;2.43;100.00
53619;BME280;39505;53.040;18.488;2023-02-19T00:26:45;100789.66;;;2.44;100.00
53619;BME280;39505;53.040;18.488;2023-02-19T00:26:58;100782.47;;;2.46;100.00
53619;BME280;39505;53.040;18.488;2023-02-19T00:27:11;100790.41;;;2.46;100.00
53619;BME280;39505;53.040;18.488;2023-02-19T00:27:24;100790.41;;;2.46;100.00
53619;BME280;39505;53.040;18.488;2023-02-19T00:27:37;100793.06;;;2.46;100.00
53619;BME280;39505;53.040;18.488;2023-02-19T00:27:50;100782.47;;;2.46;100.00
53619;BME280;39505;53.040;18.488;2023-02-19T00:28:03;100788.63;;;2.47;100.00
53619;BME280;39505;53.040;18.488;2023-02-19T00:28:18;100788.63;;;2.47;100.00
53619;BME280;39505;53.040;18.488;2023-02-19T00:28:32;100793.06;;;2.46;100.00
53619;BME280;39505;53.040;18.488;2023-02-19T00:28:45;100782.47;;;2.46;100.00
53619;BME280;39505;53.040;18.488;2023-02-19T00:28:59;100790.50;;;2.44;100.00
53619;BME280;39505;53.040;18.488;2023-02-19T00:29:15;100782.47;;;2.46;100.00
53619;BME280;39505;53.040;18.488;2023-02-19T00:29:28;100789.47;;;2.47;100.00
53619;BME280;39505;53.040;18.488;2023-02-19T00:29:42;100785.97;;;2.47;100.00
53619;BME280;39505;53.040;18.488;2023-02-19T00:29:55;100789.47;;;2.47;100.00
53619;BME280;39505;53.040;18.488;2023-02-19T00:30:09;100792.13;;;2.47;100.00
53619;BME280;39505;53.040;18.488;2023-02-19T00:30:22;100792.97;;;2.48;100.00
53619;BME280;39505;53.040;18.488;2023-02-19T00:30:35;100795.63;;;2.48;100.00
53619;BME280;39505;53.040;18.488;2023-02-19T00:30:48;100788.56;;;2.48;100.00
53619;BME280;39505;53.040;18.488;2023-02-19T00:31:06;100779.91;;;2.44;100.00
53619;BME280;39505;53.040;18.488;2023-02-19T00:31:23;100791.19;;;2.48;100.00
53619;BME280;39505;53.040;18.488;2023-02-19T00:31:36;100786.81;;;2.47;100.00
53619;BME280;39505;53.040;18.488;2023-02-19T00:31:49;100791.19;;;2.48;100.00
53619;BME280;39505;53.040;18.488;2023-02-19T00:32:03;100792.91;;;2.49;100.00
53619;BME280;39505;53.040;18.488;2023-02-19T00:32:16;100786.75;;;2.49;100.00
53619;BME280;39505;53.040;18.488;2023-02-19T00:32:30;100787.59;;;2.49;100.00
53619;BME280;39505;53.040;18.488;2023-02-19T00:32:49;100791.09;;;2.50;100.00
53619;BME280;39505;53.040;18.488;2023-02-19T00:33:02;100789.28;;;2.50;100.00
53619;BME280;39505;53.040;18.488;2023-02-19T00:33:15;100790.19;;;2.51;100.00
53619;BME280;39505;53.040;18.488;2023-02-19T00:33:28;100789.28;;;2.50;100.00
53619;BME280;39505;53.040;18.488;2023-02-19T00:33:42;100787.53;;;2.51;100.00
53619;BME280;39505;53.040;18.488;2023-02-19T00:33:56;100785.72;;;2.51;100.00
53619;BME280;39505;53.040;18.488;2023-02-19T00:34:11;100784.78;;;2.52;100.00
53619;BME280;39505;53.040;18.488;2023-02-19T00:34:25;100790.97;;;2.53;100.00
53619;BME280;39505;53.040;18.488;2023-02-19T00:34:38;100789.16;;;2.53;100.00
53619;BME280;39505;53.040;18.488;2023-02-19T00:34:51;100790.06;;;2.52;100.00
53619;BME280;39505;53.040;18.488;2023-02-19T00:35:05;100789.16;;;2.53;100.00
53619;BME280;39505;53.040;18.488;2023-02-19T00:35:18;100785.56;;;2.54;100.00
53619;BME280;39505;53.040;18.488;2023-02-19T00:35:32;100790.78;;;2.56;100.00
53619;BME280;39505;53.040;18.488;2023-02-19T00:35:46;100794.28;;;2.56;100.00
53619;BME280;39505;53.040;18.488;2023-02-19T00:36:00;100786.34;;;2.56;100.00
53619;BME280;39505;53.040;18.488;2023-02-19T00:36:14;100787.13;;;2.58;100.00
53619;BME280;39505;53.040;18.488;2023-02-19T00:36:28;100784.56;;;2.57;100.00
53619;BME280;39505;53.040;18.488;2023-02-19T00:36:43;100796.84;;;2.58;100.00
53619;BME280;39505;53.040;18.488;2023-02-19T00:36:57;100785.41;;;2.57;100.00
53619;BME280;39505;53.040;18.488;2023-02-19T00:37:10;100791.56;;;2.58;100.00
53619;BME280;39505;53.040;18.488;2023-02-19T00:37:23;100788.84;;;2.59;100.00
53619;BME280;39505;53.040;18.488;2023-02-19T00:37:36;100791.56;;;2.58;100.00
53619;BME280;39505;53.040;18.488;2023-02-19T00:37:49;100787.97;;;2.59;100.00
53619;BME280;39505;53.040;18.488;2023-02-19T00:38:03;100787.97;;;2.59;100.00
53619;BME280;39505;53.040;18.488;2023-02-19T00:38:24;100791.50;;;2.59;100.00
53619;BME280;39505;53.040;18.488;2023-02-19T00:38:53;100786.19;;;2.59;100.00
53619;BME280;39505;53.040;18.488;2023-02-19T00:39:22;100787.03;;;2.60;100.00
53619;BME280;39505;53.040;18.488;2023-02-19T00:39:56;100779.94;;;2.60;100.00
53619;BME280;39505;53.040;18.488;2023-02-19T00:40:10;100786.97;;;2.61;100.00
53619;BME280;39505;53.040;18.488;2023-02-19T00:40:22;100781.69;;;2.61;100.00
53619;BME280;39505;53.040;18.488;2023-02-19T00:40:37;100793.03;;;2.63;100.00
53619;BME280;39505;53.040;18.488;2023-02-19T00:40:50;100788.66;;;2.62;100.00
53619;BME280;39505;53.040;18.488;2023-02-19T00:41:03;100787.81;;;2.62;100.00
53619;BME280;39505;53.040;18.488;2023-02-19T00:41:30;100793.88;;;2.64;100.00
53619;BME280;39505;53.040;18.488;2023-02-19T00:41:44;100786.78;;;2.64;100.00
53619;BME280;39505;53.040;18.488;2023-02-19T00:41:57;100792.94;;;2.65;100.00
53619;BME280;39505;53.040;18.488;2023-02-19T00:42:12;100791.16;;;2.66;100.00
53619;BME280;39505;53.040;18.488;2023-02-19T00:42:24;100791.06;;;2.67;100.00
53619;BME280;39505;53.040;18.488;2023-02-19T00:42:37;100789.25;;;2.68;100.00
53619;BME280;39505;53.040;18.488;2023-02-19T00:42:50;100792.78;;;2.68;100.00
53619;BME280;39505;53.040;18.488;2023-02-19T00:43:02;100788.34;;;2.69;100.00
53619;BME280;39505;53.040;18.488;2023-02-19T00:43:17;100795.44;;;2.68;100.00
53619;BME280;39505;53.040;18.488;2023-02-19T00:43:30;100790.03;;;2.70;100.00
53619;BME280;39505;53.040;18.488;2023-02-19T00:43:42;100790.91;;;2.70;100.00
53619;BME280;39505;53.040;18.488;2023-02-19T00:43:56;100794.41;;;2.71;100.00
53619;BME280;39505;53.040;18.488;2023-02-19T00:44:10;100795.19;;;2.73;100.00
53619;BME280;39505;53.040;18.488;2023-02-19T00:44:23;100790.75;;;2.73;100.00
53619;BME280;39505;53.040;18.488;2023-02-19T00:44:36;100788.94;;;2.74;100.00
53619;BME280;39505;53.040;18.488;2023-02-19T00:44:49;100788.88;;;2.75;100.00
53619;BME280;39505;53.040;18.488;2023-02-19T00:45:02;100785.28;;;2.76;100.00
53619;BME280;39505;53.040;18.488;2023-02-19T00:45:14;100789.72;;;2.76;100.00
53619;BME280;39505;53.040;18.488;2023-02-19T00:45:27;100786.16;;;2.77;100.00
53619;BME280;39505;53.040;18.488;2023-02-19T00:45:40;100786.16;;;2.77;100.00
53619;BME280;39505;53.040;18.488;2023-02-19T00:45:52;100790.56;;;2.76;100.00
53619;BME280;39505;53.040;18.488;2023-02-19T00:46:06;100777.25;;;2.78;100.00
53619;BME280;39505;53.040;18.488;2023-02-19T00:46:21;100793.16;;;2.78;100.00
53619;BME280;39505;53.040;18.488;2023-02-19T00:46:36;100788.69;;;2.78;100.00
53619;BME280;39505;53.040;18.488;2023-02-19T00:46:49;100793.16;;;2.78;100.00
53619;BME280;39505;53.040;18.488;2023-02-19T00:47:03;100789.56;;;2.79;100.00
53619;BME280;39505;53.040;18.488;2023-02-19T00:47:15;100786.06;;;2.78;100.00
53619;BME280;39505;53.040;18.488;2023-02-19T00:47:28;100779.00;;;2.79;100.00
53619;BME280;39505;53.040;18.488;2023-02-19T00:47:41;100780.69;;;2.80;100.00
53619;BME280;39505;53.040;18.488;2023-02-19T00:47:53;100790.44;;;2.79;100.00
53619;BME280;39505;53.040;18.488;2023-02-19T00:48:06;100791.28;;;2.80;100.00
53619;BME280;39505;53.040;18.488;2023-02-19T00:48:18;100789.56;;;2.79;100.00
53619;BME280;39505;53.040;18.488;2023-02-19T00:48:31;100788.63;;;2.80;100.00
53619;BME280;39505;53.040;18.488;2023-02-19T00:48:45;100790.34;;;2.81;100.00
53619;BME280;39505;53.040;18.488;2023-02-19T00:48:58;100788.63;;;2.80;100.00
53619;BME280;39505;53.040;18.488;2023-02-19T00:49:15;100788.63;;;2.80;100.00
53619;BME280;39505;53.040;18.488;2023-02-19T00:49:28;100789.47;;;2.80;100.00
53619;BME280;39505;53.040;18.488;2023-02-19T00:49:40;100784.09;;;2.82;100.00
53619;BME280;39505;53.040;18.488;2023-02-19T00:49:54;100785.06;;;2.81;100.00
53619;BME280;39505;53.040;18.488;2023-02-19T00:50:07;100785.06;;;2.81;100.00
53619;BME280;39505;53.040;18.488;2023-02-19T00:50:19;100789.41;;;2.82;100.00
53619;BME280;39505;53.040;18.488;2023-02-19T00:50:32;100787.72;;;2.81;100.00
53619;BME280;39505;53.040;18.488;2023-02-19T00:50:45;100785.97;;;2.80;100.00
53619;BME280;39505;53.040;18.488;2023-02-19T00:50:57;100788.56;;;2.81;100.00
53619;BME280;39505;53.040;18.488;2023-02-19T00:51:10;100787.72;;;2.81;100.00
53619;BME280;39505;53.040;18.488;2023-02-19T00:51:25;100787.72;;;2.81;100.00
53619;BME280;39505;53.040;18.488;2023-02-19T00:51:38;100792.13;;;2.80;100.00
53619;BME280;39505;53.040;18.488;2023-02-19T00:51:52;100786.81;;;2.80;100.00
53619;BME280;39505;53.040;18.488;2023-02-19T00:52:04;100786.81;;;2.80;100.00
53619;BME280;39505;53.040;18.488;2023-02-19T00:52:17;100792.91;;;2.82;100.00
53619;BME280;39505;53.040;18.488;2023-02-19T00:52:30;100790.25;;;2.82;100.00
53619;BME280;39505;53.040;18.488;2023-02-19T00:52:42;100783.19;;;2.83;100.00
53619;BME280;39505;53.040;18.488;2023-02-19T00:52:55;100786.75;;;2.82;100.00
53619;BME280;39505;53.040;18.488;2023-02-19T00:53:08;100790.25;;;2.82;100.00
53619;BME280;39505;53.040;18.488;2023-02-19T00:53:21;100792.91;;;2.82;100.00
53619;BME280;39505;53.040;18.488;2023-02-19T00:53:34;100789.41;;;2.82;100.00
53619;BME280;39505;53.040;18.488;2023-02-19T00:53:47;100789.41;;;2.82;100.00
53619;BME280;39505;53.040;18.488;2023-02-19T00:53:59;100794.69;;;2.82;100.00
53619;BME280;39505;53.040;18.488;2023-02-19T00:54:13;100790.25;;;2.82;100.00
53619;BME280;39505;53.040;18.488;2023-02-19T00:54:25;100789.41;;;2.82;100.00
53619;BME280;39505;53.040;18.488;2023-02-19T00:54:39;100787.59;;;2.82;100.00
53619;BME280;39505;53.040;18.488;2023-02-19T00:54:52;100784.94;;;2.82;100.00
53619;BME280;39505;53.040;18.488;2023-02-19T00:55:05;100789.41;;;2.82;100.00
53619;BME280;39505;53.040;18.488;2023-02-19T00:55:17;100791.97;;;2.83;100.00
53619;BME280;39505;53.040;18.488;2023-02-19T00:55:30;100791.97;;;2.83;100.00
53619;BME280;39505;53.040;18.488;2023-02-19T00:55:42;100783.09;;;2.84;100.00
53619;BME280;39505;53.040;18.488;2023-02-19T00:55:55;100785.84;;;2.83;100.00
53619;BME280;39505;53.040;18.488;2023-02-19T00:56:09;100791.13;;;2.83;100.00
53619;BME280;39505;53.040;18.488;2023-02-19T00:56:22;100788.38;;;2.84;100.00
53619;BME280;39505;53.040;18.488;2023-02-19T00:56:34;100794.53;;;2.85;100.00
53619;BME280;39505;53.040;18.488;2023-02-19T00:56:47;100783.94;;;2.85;100.00
53619;BME280;39505;53.040;18.488;2023-02-19T00:57:00;100792.56;;;2.89;100.00
53619;BME280;39505;53.040;18.488;2023-02-19T00:57:13;100785.47;;;2.89;100.00
53619;BME280;39505;53.040;18.488;2023-02-19T00:57:26;100794.31;;;2.90;100.00
53619;BME280;39505;53.040;18.488;2023-02-19T00:57:39;100796.06;;;2.89;100.00
53619;BME280;39505;53.040;18.488;2023-02-19T00:57:51;100791.66;;;2.90;100.00
53619;BME280;39505;53.040;18.488;2023-02-19T00:58:04;100793.41;;;2.89;100.00
53619;BME280;39505;53.040;18.488;2023-02-19T00:58:18;100794.38;;;2.88;100.00
53619;BME280;39505;53.040;18.488;2023-02-19T00:58:31;100792.56;;;2.89;100.00
53619;BME280;39505;53.040;18.488;2023-02-19T00:58:44;100792.56;;;2.89;100.00
53619;BME280;39505;53.040;18.488;2023-02-19T00:58:58;100785.47;;;2.89;100.00
53619;BME280;39505;53.040;18.488;2023-02-19T00:59:11;100798.72;;;2.89;100.00
53619;BME280;39505;53.040;18.488;2023-02-19T00:59:23;100795.22;;;2.89;100.00
53619;BME280;39505;53.040;18.488;2023-02-19T00:59:36;100790.78;;;2.89;100.00
53619;BME280;39505;53.040;18.488;2023-02-19T00:59:48;100792.50;;;2.90;100.00
53619;BME280;39505;53.040;18.488;2023-02-19T01:00:01;100789.94;;;2.89;100.00
53619;BME280;39505;53.040;18.488;2023-02-19T01:00:14;100785.47;;;2.89;100.00
53619;BME280;39505;53.040;18.488;2023-02-19T01:00:27;100790.69;;;2.91;100.00
53619;BME280;39505;53.040;18.488;2023-02-19T01:00:40;100790.78;;;2.89;100.00
53619;BME280;39505;53.040;18.488;2023-02-19T01:00:52;100784.63;;;2.89;100.00
53619;BME280;39505;53.040;18.488;2023-02-19T01:01:06;100784.63;;;2.89;100.00
53619;BME280;39505;53.040;18.488;2023-02-19T01:01:19;100778.47;;;2.88;100.00
53619;BME280;39505;53.040;18.488;2023-02-19T01:01:32;100787.28;;;2.89;100.00
53619;BME280;39505;53.040;18.488;2023-02-19T01:01:45;100785.47;;;2.89;100.00
53619;BME280;39505;53.040;18.488;2023-02-19T01:01:58;100789.06;;;2.88;100.00
53619;BME280;39505;53.040;18.488;2023-02-19T01:02:11;100786.44;;;2.88;100.00
53619;BME280;39505;53.040;18.488;2023-02-19T01:02:24;100789.06;;;2.88;100.00
53619;BME280;39505;53.040;18.488;2023-02-19T01:02:38;100780.28;;;2.88;100.00
53619;BME280;39505;53.040;18.488;2023-02-19T01:02:51;100781.13;;;2.88;100.00
53619;BME280;39505;53.040;18.488;2023-02-19T01:03:03;100784.69;;;2.87;100.00
53619;BME280;39505;53.040;18.488;2023-02-19T01:03:16;100785.59;;;2.88;100.00
53619;BME280;39505;53.040;18.488;2023-02-19T01:03:29;100782.16;;;2.85;100.00
53619;BME280;39505;53.040;18.488;2023-02-19T01:03:42;100790.00;;;2.87;100.00
53619;BME280;39505;53.040;18.488;2023-02-19T01:03:55;100790.88;;;2.88;100.00
53619;BME280;39505;53.040;18.488;2023-02-19T01:04:08;100782.06;;;2.87;100.00
53619;BME280;39505;53.040;18.488;2023-02-19T01:04:20;100789.06;;;2.88;100.00
53619;BME280;39505;53.040;18.488;2023-02-19T01:04:34;100782.94;;;2.88;100.00
53619;BME280;39505;53.040;18.488;2023-02-19T01:04:46;100790.78;;;2.89;100.00
53619;BME280;39505;53.040;18.488;2023-02-19T01:04:59;100793.41;;;2.89;100.00
53619;BME280;39505;53.040;18.488;2023-02-19T01:05:12;100787.28;;;2.89;100.00
53619;BME280;39505;53.040;18.488;2023-02-19T01:05:24;100791.66;;;2.90;100.00
53619;BME280;39505;53.040;18.488;2023-02-19T01:05:37;100790.78;;;2.89;100.00
53619;BME280;39505;53.040;18.488;2023-02-19T01:05:50;100794.19;;;2.91;100.00
53619;BME280;39505;53.040;18.488;2023-02-19T01:06:07;100791.53;;;2.91;100.00
53619;BME280;39505;53.040;18.488;2023-02-19T01:06:20;100786.25;;;2.91;100.00
53619;BME280;39505;53.040;18.488;2023-02-19T01:06:33;100792.44;;;2.92;100.00
53619;BME280;39505;53.040;18.488;2023-02-19T01:06:46;100785.34;;;2.92;100.00
53619;BME280;39505;53.040;18.488;2023-02-19T01:07:00;100790.63;;;2.92;100.00
53619;BME280;39505;53.040;18.488;2023-02-19T01:07:14;100788.81;;;2.93;100.00
53619;BME280;39505;53.040;18.488;2023-02-19T01:07:27;100787.13;;;2.92;100.00
53619;BME280;39505;53.040;18.488;2023-02-19T01:07:40;100782.69;;;2.92;100.00
53619;BME280;39505;53.040;18.488;2023-02-19T01:07:52;100787.88;;;2.94;100.00
53619;BME280;39505;53.040;18.488;2023-02-19T01:08:05;100787.03;;;2.93;100.00
53619;BME280;39505;53.040;18.488;2023-02-19T01:08:18;100782.75;;;2.91;100.00
53619;BME280;39505;53.040;18.488;2023-02-19T01:08:31;100786.09;;;2.94;100.00
53619;BME280;39505;53.040;18.488;2023-02-19T01:08:45;100784.38;;;2.93;100.00
53619;BME280;39505;53.040;18.488;2023-02-19T01:08:58;100783.47;;;2.94;100.00
53619;BME280;39505;53.040;18.488;2023-02-19T01:09:11;100780.69;;;2.96;100.00
53619;BME280;39505;53.040;18.488;2023-02-19T01:09:23;100784.31;;;2.95;100.00
53619;BME280;39505;53.040;18.488;2023-02-19T01:09:36;100781.59;;;2.96;100.00
53619;BME280;39505;53.040;18.488;2023-02-19T01:09:50;100788.66;;;2.96;100.00
53619;BME280;39505;53.040;18.488;2023-02-19T01:10:03;100782.50;;;2.95;100.00
53619;BME280;39505;53.040;18.488;2023-02-19T01:10:16;100778.94;;;2.96;100.00
53619;BME280;39505;53.040;18.488;2023-02-19T01:10:28;100786.88;;;2.96;100.00
53619;BME280;39505;53.040;18.488;2023-02-19T01:10:41;100785.94;;;2.97;100.00
53619;BME280;39505;53.040;18.488;2023-02-19T01:10:54;100781.47;;;2.98;100.00
53619;BME280;39505;53.040;18.488;2023-02-19T01:11:08;100783.28;;;2.97;100.00
53619;BME280;39505;53.040;18.488;2023-02-19T01:11:21;100777.97;;;2.97;100.00
53619;BME280;39505;53.040;18.488;2023-02-19T01:11:34;100781.41;;;2.99;100.00
53619;BME280;39505;53.040;18.488;2023-02-19T01:11:47;100784.06;;;2.99;100.00